sensor_id;sensor_type;location;lat;lon;timestamp;pressure;altitude;pressure_sealevel;temperature;humidity
2841;BME280;53423;49.224;12.074;2022-09-14T00:01:28;97047.72;;;17.22;74.68
2841;BME280;53423;49.224;12.074;2022-09-14T00:03:58;97047.75;;;17.15;74.99
2841;BME280;53423;49.224;12.074;2022-09-14T00:06:29;97055.28;;;17.18;74.55
2841;BME280;53423;49.224;12.074;2022-09-14T00:08:58;97063.50;;;17.10;75.08
2841;BME280;53423;49.224;12.074;2022-09-14T00:11:29;97072.25;;;17.11;75.54
2841;BME280;53423;49.224;12.074;2022-09-14T00:13:58;97066.16;;;17.10;75.47
2841;BME280;53423;49.224;12.074;2022-09-14T00:16:28;97049.84;;;17.13;75.45
2841;BME280;53423;49.224;12.074;2022-09-14T00:18:59;97062.25;;;17.13;75.49
2841;BME280;53423;49.224;12.074;2022-09-14T00:21:33;97059.75;;;17.18;75.09
2841;BME280;53423;49.224;12.074;2022-09-14T00:24:02;97047.56;;;17.17;74.98
2841;BME280;53423;49.224;12.074;2022-09-14T00:26:30;97040.91;;;17.26;74.60
2841;BME280;53423;49.224;12.074;2022-09-14T00:28:59;97025.75;;;17.33;74.14
2841;BME280;53423;49.224;12.074;2022-09-14T00:31:30;97016.34;;;17.37;74.08
2841;BME280;53423;49.224;12.074;2022-09-14T00:33:59;97008.69;;;17.29;75.14
2841;BME280;53423;49.224;12.074;2022-09-14T00:36:29;97016.25;;;17.25;74.70
2841;BME280;53423;49.224;12.074;2022-09-14T00:38:59;97011.19;;;17.24;74.85
2841;BME280;53423;49.224;12.074;2022-09-14T00:41:29;97009.34;;;17.24;74.62
2841;BME280;53423;49.224;12.074;2022-09-14T00:44:00;97001.91;;;17.33;74.58
2841;BME280;53423;49.224;12.074;2022-09-14T00:46:29;97019.13;;;17.24;74.65
2841;BME280;53423;49.224;12.074;2022-09-14T00:48:59;97023.91;;;17.15;75.69
2841;BME280;53423;49.224;12.074;2022-09-14T00:51:30;97027.06;;;17.24;75.05
2841;BME280;53423;49.224;12.074;2022-09-14T00:54:01;97030.91;;;17.28;75.14
2841;BME280;53423;49.224;12.074;2022-09-14T00:56:30;97022.75;;;17.29;74.85
2841;BME280;53423;49.224;12.074;2022-09-14T00:59:00;97011.91;;;17.31;74.89
2841;BME280;53423;49.224;12.074;2022-09-14T01:01:31;97000.50;;;17.30;74.44
2841;BME280;53423;49.224;12.074;2022-09-14T01:04:00;97006.25;;;17.27;74.95
2841;BME280;53423;49.224;12.074;2022-09-14T01:06:35;97014.78;;;17.29;74.63
2841;BME280;53423;49.224;12.074;2022-09-14T01:09:24;97005.59;;;17.32;74.79
2841;BME280;53423;49.224;12.074;2022-09-14T01:12:07;97001.69;;;17.34;74.44
2841;BME280;53423;49.224;12.074;2022-09-14T01:14:43;96999.84;;;17.35;74.62
2841;BME280;53423;49.224;12.074;2022-09-14T01:17:19;96998.09;;;17.29;75.00
2841;BME280;53423;49.224;12.074;2022-09-14T01:20:15;96997.72;;;17.25;75.17
2841;BME280;53423;49.224;12.074;2022-09-14T01:22:51;96996.72;;;17.26;75.38
2841;BME280;53423;49.224;12.074;2022-09-14T01:25:34;96992.41;;;17.25;75.54
2841;BME280;53423;49.224;12.074;2022-09-14T01:28:09;96976.66;;;17.30;75.27
2841;BME280;53423;49.224;12.074;2022-09-14T01:30:40;96981.63;;;17.27;75.85
2841;BME280;53423;49.224;12.074;2022-09-14T01:33:13;96981.63;;;17.27;75.65
2841;BME280;53423;49.224;12.074;2022-09-14T01:35:45;96983.69;;;17.25;76.04
2841;BME280;53423;49.224;12.074;2022-09-14T01:38:18;96982.06;;;17.24;75.53
2841;BME280;53423;49.224;12.074;2022-09-14T01:40:48;96978.75;;;17.28;75.53
2841;BME280;53423;49.224;12.074;2022-09-14T01:43:22;96985.06;;;17.27;75.58
2841;BME280;53423;49.224;12.074;2022-09-14T01:45:54;96983.00;;;17.29;74.85
2841;BME280;53423;49.224;12.074;2022-09-14T01:48:29;96986.47;;;17.30;75.53
2841;BME280;53423;49.224;12.074;2022-09-14T01:51:00;96992.28;;;17.20;75.92
2841;BME280;53423;49.224;12.074;2022-09-14T01:53:34;96999.34;;;17.26;75.26
2841;BME280;53423;49.224;12.074;2022-09-14T01:56:06;96987.06;;;17.32;75.49
2841;BME280;53423;49.224;12.074;2022-09-14T01:58:41;96988.66;;;17.33;75.08
2841;BME280;53423;49.224;12.074;2022-09-14T02:01:16;96996.16;;;17.36;75.37
2841;BME280;53423;49.224;12.074;2022-09-14T02:03:49;96994.56;;;17.35;75.41
2841;BME280;53423;49.224;12.074;2022-09-14T02:06:22;96985.78;;;17.34;75.83
2841;BME280;53423;49.224;12.074;2022-09-14T02:08:51;96983.81;;;17.30;75.25
2841;BME280;53423;49.224;12.074;2022-09-14T02:11:19;96989.63;;;17.20;75.98
2841;BME280;53423;49.224;12.074;2022-09-14T02:13:49;96979.84;;;17.21;76.15
2841;BME280;53423;49.224;12.074;2022-09-14T02:16:17;96977.34;;;17.26;76.35
2841;BME280;53423;49.224;12.074;2022-09-14T02:18:45;96962.63;;;17.30;75.53
2841;BME280;53423;49.224;12.074;2022-09-14T02:21:16;96964.22;;;17.31;75.98
2841;BME280;53423;49.224;12.074;2022-09-14T02:23:45;96959.25;;;17.23;75.58
2841;BME280;53423;49.224;12.074;2022-09-14T02:26:14;96950.50;;;17.22;75.63
2841;BME280;53423;49.224;12.074;2022-09-14T02:28:43;96940.25;;;17.26;75.54
2841;BME280;53423;49.224;12.074;2022-09-14T02:31:19;96936.00;;;17.25;76.13
2841;BME280;53423;49.224;12.074;2022-09-14T02:33:56;96930.69;;;17.25;76.10
2841;BME280;53423;49.224;12.074;2022-09-14T02:36:33;96922.06;;;17.29;75.41
2841;BME280;53423;49.224;12.074;2022-09-14T02:39:09;96928.06;;;17.25;75.90
2841;BME280;53423;49.224;12.074;2022-09-14T02:41:46;96921.94;;;17.24;76.22
2841;BME280;53423;49.224;12.074;2022-09-14T02:44:19;96921.59;;;17.21;76.70
2841;BME280;53423;49.224;12.074;2022-09-14T02:46:57;96917.97;;;17.15;76.83
2841;BME280;53423;49.224;12.074;2022-09-14T02:49:33;96925.13;;;17.15;76.28
2841;BME280;53423;49.224;12.074;2022-09-14T02:52:10;96918.22;;;17.14;76.80
2841;BME280;53423;49.224;12.074;2022-09-14T02:54:45;96917.06;;;17.10;76.03
2841;BME280;53423;49.224;12.074;2022-09-14T02:57:14;96930.44;;;17.15;76.09
2841;BME280;53423;49.224;12.074;2022-09-14T02:59:42;96913.03;;;17.19;76.20
2841;BME280;53423;49.224;12.074;2022-09-14T03:02:12;96912.41;;;17.23;76.10
2841;BME280;53423;49.224;12.074;2022-09-14T03:04:40;96910.09;;;17.27;76.38
2841;BME280;53423;49.224;12.074;2022-09-14T03:07:08;96906.72;;;17.20;76.05
2841;BME280;53423;49.224;12.074;2022-09-14T03:09:36;96910.97;;;17.21;76.55
2841;BME280;53423;49.224;12.074;2022-09-14T03:12:04;96894.88;;;17.22;76.94
2841;BME280;53423;49.224;12.074;2022-09-14T03:14:32;96881.53;;;17.29;76.75
2841;BME280;53423;49.224;12.074;2022-09-14T03:17:00;96871.50;;;17.31;75.87
2841;BME280;53423;49.224;12.074;2022-09-14T03:19:29;96869.91;;;17.30;75.91
2841;BME280;53423;49.224;12.074;2022-09-14T03:21:57;96872.78;;;17.28;76.71
2841;BME280;53423;49.224;12.074;2022-09-14T03:24:26;96861.72;;;17.31;76.46
2841;BME280;53423;49.224;12.074;2022-09-14T03:26:54;96845.59;;;17.33;76.19
2841;BME280;53423;49.224;12.074;2022-09-14T03:29:22;96851.69;;;17.22;77.07
2841;BME280;53423;49.224;12.074;2022-09-14T03:31:50;96853.75;;;17.20;76.29
2841;BME280;53423;49.224;12.074;2022-09-14T03:34:18;96858.00;;;17.21;77.47
2841;BME280;53423;49.224;12.074;2022-09-14T03:36:48;96853.06;;;17.24;77.00
2841;BME280;53423;49.224;12.074;2022-09-14T03:39:16;96860.31;;;17.29;76.76
2841;BME280;53423;49.224;12.074;2022-09-14T03:41:44;96855.25;;;17.27;76.52
2841;BME280;53423;49.224;12.074;2022-09-14T03:44:11;96847.31;;;17.27;76.91
2841;BME280;53423;49.224;12.074;2022-09-14T03:46:39;96860.44;;;17.22;76.22
2841;BME280;53423;49.224;12.074;2022-09-14T03:49:07;96880.69;;;17.17;77.36
2841;BME280;53423;49.224;12.074;2022-09-14T03:51:35;96909.25;;;17.15;77.20
2841;BME280;53423;49.224;12.074;2022-09-14T03:54:05;96913.84;;;17.19;77.38
2841;BME280;53423;49.224;12.074;2022-09-14T03:56:33;96917.47;;;17.25;76.45
2841;BME280;53423;49.224;12.074;2022-09-14T03:59:01;96930.47;;;17.26;77.08
2841;BME280;53423;49.224;12.074;2022-09-14T04:01:29;96946.38;;;17.26;76.85
2841;BME280;53423;49.224;12.074;2022-09-14T04:03:58;96976.31;;;17.27;76.71
2841;BME280;53423;49.224;12.074;2022-09-14T04:06:26;97008.69;;;17.29;77.14
2841;BME280;53423;49.224;12.074;2022-09-14T04:08:54;96985.06;;;17.27;76.14
2841;BME280;53423;49.224;12.074;2022-09-14T04:11:23;96966.06;;;17.30;76.63
2841;BME280;53423;49.224;12.074;2022-09-14T04:13:52;96931.72;;;17.24;76.87
2841;BME280;53423;49.224;12.074;2022-09-14T04:16:20;96908.28;;;17.09;77.03
2841;BME280;53423;49.224;12.074;2022-09-14T04:18:49;96930.16;;;17.05;77.01
2841;BME280;53423;49.224;12.074;2022-09-14T04:21:19;96936.16;;;17.12;77.56
2841;BME280;53423;49.224;12.074;2022-09-14T04:23:50;96929.97;;;17.18;76.50
2841;BME280;53423;49.224;12.074;2022-09-14T04:26:40;96916.72;;;17.18;76.98
2841;BME280;53423;49.224;12.074;2022-09-14T04:29:09;96900.38;;;17.21;77.30
2841;BME280;53423;49.224;12.074;2022-09-14T04:31:37;96880.13;;;17.15;77.37
2841;BME280;53423;49.224;12.074;2022-09-14T04:34:06;96869.47;;;17.03;77.20
2841;BME280;53423;49.224;12.074;2022-09-14T04:36:34;96862.91;;;17.06;77.66
2841;BME280;53423;49.224;12.074;2022-09-14T04:39:03;96871.34;;;17.14;76.80
2841;BME280;53423;49.224;12.074;2022-09-14T04:41:31;96870.66;;;17.19;76.81
2841;BME280;53423;49.224;12.074;2022-09-14T04:44:01;96884.50;;;17.21;77.39
2841;BME280;53423;49.224;12.074;2022-09-14T04:46:30;96887.38;;;17.19;76.93
2841;BME280;53423;49.224;12.074;2022-09-14T04:49:01;96891.75;;;17.25;76.74
2841;BME280;53423;49.224;12.074;2022-09-14T04:51:30;96879.56;;;17.24;77.56
2841;BME280;53423;49.224;12.074;2022-09-14T04:54:00;96878.06;;;17.17;76.90
2841;BME280;53423;49.224;12.074;2022-09-14T04:56:30;96882.53;;;17.16;77.34
2841;BME280;53423;49.224;12.074;2022-09-14T04:59:01;96925.22;;;17.08;78.07
2841;BME280;53423;49.224;12.074;2022-09-14T05:01:33;96951.72;;;17.08;78.41
2841;BME280;53423;49.224;12.074;2022-09-14T05:04:02;96968.97;;;17.11;77.63
2841;BME280;53423;49.224;12.074;2022-09-14T05:06:31;96942.53;;;17.22;77.19
2841;BME280;53423;49.224;12.074;2022-09-14T05:09:01;96893.94;;;17.17;77.38
2841;BME280;53423;49.224;12.074;2022-09-14T05:11:31;96900.25;;;17.16;76.55
2841;BME280;53423;49.224;12.074;2022-09-14T05:14:01;96892.09;;;17.17;76.87
2841;BME280;53423;49.224;12.074;2022-09-14T05:16:30;96861.59;;;17.26;76.71
2841;BME280;53423;49.224;12.074;2022-09-14T05:19:00;96896.78;;;17.15;77.33
2841;BME280;53423;49.224;12.074;2022-09-14T05:21:30;96881.50;;;17.17;76.67
2841;BME280;53423;49.224;12.074;2022-09-14T05:24:00;96878.72;;;17.12;77.10
2841;BME280;53423;49.224;12.074;2022-09-14T05:26:30;96872.41;;;17.13;76.95
2841;BME280;53423;49.224;12.074;2022-09-14T05:28:59;96864.13;;;17.21;77.06
2841;BME280;53423;49.224;12.074;2022-09-14T05:31:30;96882.69;;;17.33;76.61
2841;BME280;53423;49.224;12.074;2022-09-14T05:33:58;96901.34;;;17.26;76.30
2841;BME280;53423;49.224;12.074;2022-09-14T05:36:26;96861.38;;;17.28;76.64
2841;BME280;53423;49.224;12.074;2022-09-14T05:38:54;96859.16;;;17.13;77.30
2841;BME280;53423;49.224;12.074;2022-09-14T05:41:23;96865.22;;;17.14;76.94
2841;BME280;53423;49.224;12.074;2022-09-14T05:43:51;96862.91;;;17.06;77.65
2841;BME280;53423;49.224;12.074;2022-09-14T05:46:19;96855.28;;;16.98;77.74
2841;BME280;53423;49.224;12.074;2022-09-14T05:48:49;96852.59;;;16.86;78.38
2841;BME280;53423;49.224;12.074;2022-09-14T05:51:19;96843.28;;;16.95;77.96
2841;BME280;53423;49.224;12.074;2022-09-14T05:53:48;96831.31;;;16.93;77.64
2841;BME280;53423;49.224;12.074;2022-09-14T05:56:18;96834.16;;;17.09;77.77
2841;BME280;53423;49.224;12.074;2022-09-14T05:58:47;96835.31;;;17.13;76.61
2841;BME280;53423;49.224;12.074;2022-09-14T06:01:17;96833.34;;;17.20;77.34
2841;BME280;53423;49.224;12.074;2022-09-14T06:03:46;96805.50;;;17.18;77.16
2841;BME280;53423;49.224;12.074;2022-09-14T06:06:17;96810.09;;;17.22;76.66
2841;BME280;53423;49.224;12.074;2022-09-14T06:08:48;96810.00;;;17.29;76.91
2841;BME280;53423;49.224;12.074;2022-09-14T06:11:20;96810.59;;;17.31;76.87
2841;BME280;53423;49.224;12.074;2022-09-14T06:13:48;96805.41;;;17.36;76.77
2841;BME280;53423;49.224;12.074;2022-09-14T06:16:19;96798.56;;;17.47;76.28
2841;BME280;53423;49.224;12.074;2022-09-14T06:18:47;96800.72;;;17.50;76.44
2841;BME280;53423;49.224;12.074;2022-09-14T06:21:18;96782.88;;;17.57;76.49
2841;BME280;53423;49.224;12.074;2022-09-14T06:23:48;96779.31;;;17.63;76.52
2841;BME280;53423;49.224;12.074;2022-09-14T06:26:16;96785.53;;;17.80;75.76
2841;BME280;53423;49.224;12.074;2022-09-14T06:28:44;96779.41;;;17.68;75.68
2841;BME280;53423;49.224;12.074;2022-09-14T06:31:13;96786.25;;;17.64;76.53
2841;BME280;53423;49.224;12.074;2022-09-14T06:33:44;96784.84;;;17.73;75.65
2841;BME280;53423;49.224;12.074;2022-09-14T06:36:14;96789.22;;;17.79;76.05
2841;BME280;53423;49.224;12.074;2022-09-14T06:38:46;96794.41;;;17.74;75.94
2841;BME280;53423;49.224;12.074;2022-09-14T06:41:17;96786.59;;;17.79;76.31
2841;BME280;53423;49.224;12.074;2022-09-14T06:43:46;96780.56;;;17.83;75.72
2841;BME280;53423;49.224;12.074;2022-09-14T06:46:16;96779.31;;;17.86;75.44
2841;BME280;53423;49.224;12.074;2022-09-14T06:48:47;96780.22;;;17.91;75.35
2841;BME280;53423;49.224;12.074;2022-09-14T06:51:18;96772.22;;;18.03;75.09
2841;BME280;53423;49.224;12.074;2022-09-14T06:53:49;96765.81;;;17.99;76.01
2841;BME280;53423;49.224;12.074;2022-09-14T06:56:17;96763.03;;;18.05;75.34
2841;BME280;53423;49.224;12.074;2022-09-14T06:58:45;96760.50;;;17.99;75.29
2841;BME280;53423;49.224;12.074;2022-09-14T07:01:15;96764.19;;;18.09;75.31
2841;BME280;53423;49.224;12.074;2022-09-14T07:03:43;96772.78;;;18.16;75.79
2841;BME280;53423;49.224;12.074;2022-09-14T07:06:14;96773.56;;;18.28;74.70
2841;BME280;53423;49.224;12.074;2022-09-14T07:08:43;96772.56;;;18.18;75.37
2841;BME280;53423;49.224;12.074;2022-09-14T07:11:14;96777.56;;;18.14;75.03
2841;BME280;53423;49.224;12.074;2022-09-14T07:13:43;96786.63;;;18.18;75.25
2841;BME280;53423;49.224;12.074;2022-09-14T07:16:12;96770.75;;;18.07;75.73
2841;BME280;53423;49.224;12.074;2022-09-14T07:18:40;96775.91;;;18.13;75.58
2841;BME280;53423;49.224;12.074;2022-09-14T07:21:10;96775.00;;;18.19;74.68
2841;BME280;53423;49.224;12.074;2022-09-14T07:23:40;96784.78;;;18.19;75.50
2841;BME280;53423;49.224;12.074;2022-09-14T07:26:10;96778.44;;;18.20;75.71
2841;BME280;53423;49.224;12.074;2022-09-14T07:28:40;96775.09;;;18.24;75.70
2841;BME280;53423;49.224;12.074;2022-09-14T07:31:16;96780.63;;;18.23;74.67
2841;BME280;53423;49.224;12.074;2022-09-14T07:33:45;96791.03;;;18.13;76.06
2841;BME280;53423;49.224;12.074;2022-09-14T07:36:13;96794.63;;;18.07;75.91
2841;BME280;53423;49.224;12.074;2022-09-14T07:38:41;96787.38;;;18.02;76.46
2841;BME280;53423;49.224;12.074;2022-09-14T07:41:19;96773.06;;;18.03;75.71
2841;BME280;53423;49.224;12.074;2022-09-14T07:43:49;96754.25;;;18.05;75.82
2841;BME280;53423;49.224;12.074;2022-09-14T07:46:18;96751.94;;;18.08;75.64
2841;BME280;53423;49.224;12.074;2022-09-14T07:48:47;96772.47;;;18.01;76.01
2841;BME280;53423;49.224;12.074;2022-09-14T07:51:15;96766.94;;;18.03;76.09
2841;BME280;53423;49.224;12.074;2022-09-14T07:53:43;96782.75;;;18.09;75.94
2841;BME280;53423;49.224;12.074;2022-09-14T07:56:12;96780.97;;;18.15;76.20
2841;BME280;53423;49.224;12.074;2022-09-14T07:58:42;96781.16;;;18.36;74.72
2841;BME280;53423;49.224;12.074;2022-09-14T08:01:13;96783.16;;;18.41;74.89
2841;BME280;53423;49.224;12.074;2022-09-14T08:03:44;96781.22;;;18.65;74.19
2841;BME280;53423;49.224;12.074;2022-09-14T08:06:15;96782.47;;;18.90;73.72
2841;BME280;53423;49.224;12.074;2022-09-14T08:08:45;96784.72;;;19.10;73.29
2841;BME280;53423;49.224;12.074;2022-09-14T08:11:15;96779.22;;;19.00;73.32
2841;BME280;53423;49.224;12.074;2022-09-14T08:13:45;96789.22;;;19.09;73.10
2841;BME280;53423;49.224;12.074;2022-09-14T08:16:17;96797.09;;;19.04;72.56
2841;BME280;53423;49.224;12.074;2022-09-14T08:18:46;96801.91;;;19.07;73.07
2841;BME280;53423;49.224;12.074;2022-09-14T08:21:15;96784.84;;;18.87;72.80
2841;BME280;53423;49.224;12.074;2022-09-14T08:23:44;96782.03;;;18.93;72.97
2841;BME280;53423;49.224;12.074;2022-09-14T08:26:13;96787.94;;;18.84;72.91
2841;BME280;53423;49.224;12.074;2022-09-14T08:28:42;96787.09;;;18.67;73.22
2841;BME280;53423;49.224;12.074;2022-09-14T08:31:12;96785.88;;;18.86;73.32
2841;BME280;53423;49.224;12.074;2022-09-14T08:33:43;96789.84;;;19.00;72.93
2841;BME280;53423;49.224;12.074;2022-09-14T08:36:13;96794.13;;;19.17;73.32
2841;BME280;53423;49.224;12.074;2022-09-14T08:38:42;96787.84;;;19.07;73.38
2841;BME280;53423;49.224;12.074;2022-09-14T08:41:18;96794.59;;;19.14;72.54
2841;BME280;53423;49.224;12.074;2022-09-14T08:43:50;96796.59;;;19.07;73.37
2841;BME280;53423;49.224;12.074;2022-09-14T08:46:26;96792.25;;;19.29;72.71
2841;BME280;53423;49.224;12.074;2022-09-14T08:48:57;96790.00;;;19.38;71.72
2841;BME280;53423;49.224;12.074;2022-09-14T08:51:26;96787.38;;;19.26;72.65
2841;BME280;53423;49.224;12.074;2022-09-14T08:53:55;96780.09;;;19.33;72.66
2841;BME280;53423;49.224;12.074;2022-09-14T08:56:30;96752.75;;;19.54;72.25
2841;BME280;53423;49.224;12.074;2022-09-14T08:59:35;96770.78;;;19.69;70.56
2841;BME280;53423;49.224;12.074;2022-09-14T09:02:27;96762.00;;;20.23;69.76
2841;BME280;53423;49.224;12.074;2022-09-14T09:05:03;96764.16;;;20.26;69.40
2841;BME280;53423;49.224;12.074;2022-09-14T09:07:40;96765.81;;;19.56;70.90
2841;BME280;53423;49.224;12.074;2022-09-14T09:10:11;96773.13;;;19.82;70.59
2841;BME280;53423;49.224;12.074;2022-09-14T09:12:44;96766.47;;;20.39;68.58
2841;BME280;53423;49.224;12.074;2022-09-14T09:15:18;96778.69;;;20.62;68.61
2841;BME280;53423;49.224;12.074;2022-09-14T09:17:50;96773.06;;;20.58;68.59
2841;BME280;53423;49.224;12.074;2022-09-14T09:20:25;96770.97;;;20.39;68.03
2841;BME280;53423;49.224;12.074;2022-09-14T09:23:02;96784.28;;;20.01;69.22
2841;BME280;53423;49.224;12.074;2022-09-14T09:28:25;96779.41;;;19.76;70.34
2841;BME280;53423;49.224;12.074;2022-09-14T09:30:56;96781.31;;;19.97;71.19
2841;BME280;53423;49.224;12.074;2022-09-14T09:33:26;96774.69;;;20.38;69.19
2841;BME280;53423;49.224;12.074;2022-09-14T09:35:56;96784.47;;;20.54;69.69
2841;BME280;53423;49.224;12.074;2022-09-14T09:38:26;96786.06;;;20.55;69.39
2841;BME280;53423;49.224;12.074;2022-09-14T09:40:57;96805.84;;;20.37;71.05
2841;BME280;53423;49.224;12.074;2022-09-14T09:43:25;96807.38;;;20.55;69.49
2841;BME280;53423;49.224;12.074;2022-09-14T09:46:14;96806.25;;;20.29;71.09
2841;BME280;53423;49.224;12.074;2022-09-14T09:48:43;96809.66;;;20.25;70.44
2841;BME280;53423;49.224;12.074;2022-09-14T09:51:14;96804.66;;;20.12;71.18
2841;BME280;53423;49.224;12.074;2022-09-14T09:53:51;96803.72;;;20.01;71.13
2841;BME280;53423;49.224;12.074;2022-09-14T09:56:22;96803.41;;;19.81;72.18
2841;BME280;53423;49.224;12.074;2022-09-14T09:58:51;96799.44;;;19.62;73.24
2841;BME280;53423;49.224;12.074;2022-09-14T10:01:21;96789.78;;;19.77;73.78
2841;BME280;53423;49.224;12.074;2022-09-14T10:04:03;96804.19;;;19.98;72.36
2841;BME280;53423;49.224;12.074;2022-09-14T10:06:40;96802.63;;;19.64;73.25
2841;BME280;53423;49.224;12.074;2022-09-14T10:09:13;96793.59;;;19.82;73.41
2841;BME280;53423;49.224;12.074;2022-09-14T10:11:43;96798.88;;;19.98;72.88
2841;BME280;53423;49.224;12.074;2022-09-14T10:14:21;96802.34;;;20.15;72.33
2841;BME280;53423;49.224;12.074;2022-09-14T10:16:50;96807.56;;;20.10;72.64
2841;BME280;53423;49.224;12.074;2022-09-14T10:19:21;96797.03;;;20.15;72.71
2841;BME280;53423;49.224;12.074;2022-09-14T10:22:19;96795.44;;;20.36;71.76
2841;BME280;53423;49.224;12.074;2022-09-14T10:24:55;96794.19;;;20.43;71.82
2841;BME280;53423;49.224;12.074;2022-09-14T10:27:36;96786.94;;;20.39;71.42
2841;BME280;53423;49.224;12.074;2022-09-14T10:30:12;96794.56;;;20.52;72.33
2841;BME280;53423;49.224;12.074;2022-09-14T10:32:43;96786.13;;;20.60;71.73
2841;BME280;53423;49.224;12.074;2022-09-14T10:35:13;96782.59;;;20.76;71.57
2841;BME280;53423;49.224;12.074;2022-09-14T10:38:00;96779.00;;;20.92;70.74
2841;BME280;53423;49.224;12.074;2022-09-14T10:40:35;96781.38;;;20.88;71.47
2841;BME280;53423;49.224;12.074;2022-09-14T10:43:12;96771.44;;;21.06;71.17
2841;BME280;53423;49.224;12.074;2022-09-14T10:45:48;96775.59;;;20.96;71.20
2841;BME280;53423;49.224;12.074;2022-09-14T10:48:34;96771.28;;;20.90;71.18
2841;BME280;53423;49.224;12.074;2022-09-14T10:51:17;96775.50;;;20.86;71.82
2841;BME280;53423;49.224;12.074;2022-09-14T10:54:00;96759.31;;;21.20;71.47
2841;BME280;53423;49.224;12.074;2022-09-14T10:56:35;96745.06;;;21.41;71.07
2841;BME280;53423;49.224;12.074;2022-09-14T10:59:23;96745.47;;;21.59;70.06
2841;BME280;53423;49.224;12.074;2022-09-14T11:05:08;96742.75;;;21.49;69.88
2841;BME280;53423;49.224;12.074;2022-09-14T11:07:46;96742.66;;;21.39;70.32
2841;BME280;53423;49.224;12.074;2022-09-14T11:10:24;96743.97;;;21.32;70.95
2841;BME280;53423;49.224;12.074;2022-09-14T11:13:09;96733.06;;;21.38;71.32
2841;BME280;53423;49.224;12.074;2022-09-14T11:15:44;96728.31;;;21.82;70.39
2841;BME280;53423;49.224;12.074;2022-09-14T11:18:22;96734.22;;;22.46;68.50
2841;BME280;53423;49.224;12.074;2022-09-14T11:21:04;96735.09;;;22.56;68.62
2841;BME280;53423;49.224;12.074;2022-09-14T11:23:42;96732.09;;;22.48;68.20
2841;BME280;53423;49.224;12.074;2022-09-14T11:26:26;96726.44;;;22.34;68.28
2841;BME280;53423;49.224;12.074;2022-09-14T11:29:02;96735.75;;;22.27;68.40
2841;BME280;53423;49.224;12.074;2022-09-14T11:31:38;96722.88;;;22.13;68.69
2841;BME280;53423;49.224;12.074;2022-09-14T11:34:32;96724.94;;;21.96;70.62
2841;BME280;53423;49.224;12.074;2022-09-14T11:37:04;96724.41;;;21.99;70.10
2841;BME280;53423;49.224;12.074;2022-09-14T11:39:36;96721.50;;;22.11;70.36
2841;BME280;53423;49.224;12.074;2022-09-14T11:42:14;96720.81;;;22.31;69.56
2841;BME280;53423;49.224;12.074;2022-09-14T11:44:44;96717.38;;;22.40;69.26
2841;BME280;53423;49.224;12.074;2022-09-14T11:47:14;96714.81;;;22.75;67.77
2841;BME280;53423;49.224;12.074;2022-09-14T11:49:52;96707.91;;;23.24;65.18
2841;BME280;53423;49.224;12.074;2022-09-14T11:52:25;96696.31;;;23.89;63.91
2841;BME280;53423;49.224;12.074;2022-09-14T11:54:53;96690.22;;;24.47;61.77
2841;BME280;53423;49.224;12.074;2022-09-14T11:57:25;96680.00;;;25.27;59.14
2841;BME280;53423;49.224;12.074;2022-09-14T11:59:55;96685.28;;;25.65;58.54
2841;BME280;53423;49.224;12.074;2022-09-14T12:03:00;96675.38;;;25.90;57.85
2841;BME280;53423;49.224;12.074;2022-09-14T12:05:39;96676.41;;;26.41;56.72
2841;BME280;53423;49.224;12.074;2022-09-14T12:08:37;96661.59;;;26.80;54.49
2841;BME280;53423;49.224;12.074;2022-09-14T12:11:27;96651.56;;;26.86;54.09
2841;BME280;53423;49.224;12.074;2022-09-14T12:14:31;96667.81;;;27.13;52.77
2841;BME280;53423;49.224;12.074;2022-09-14T12:17:25;96668.84;;;26.80;53.32
2841;BME280;53423;49.224;12.074;2022-09-14T12:20:37;96666.13;;;26.43;53.45
2841;BME280;53423;49.224;12.074;2022-09-14T12:23:42;96677.47;;;26.58;54.07
2841;BME280;53423;49.224;12.074;2022-09-14T12:26:35;96672.41;;;26.94;52.99
2841;BME280;53423;49.224;12.074;2022-09-14T12:29:32;96678.28;;;27.15;52.52
2841;BME280;53423;49.224;12.074;2022-09-14T12:32:40;96677.81;;;26.75;52.85
2841;BME280;53423;49.224;12.074;2022-09-14T12:35:44;96672.38;;;27.13;53.06
2841;BME280;53423;49.224;12.074;2022-09-14T12:39:05;96676.91;;;26.99;52.23
2841;BME280;53423;49.224;12.074;2022-09-14T12:44:40;96674.28;;;26.93;51.23
2841;BME280;53423;49.224;12.074;2022-09-14T12:47:37;96681.63;;;26.51;52.61
2841;BME280;53423;49.224;12.074;2022-09-14T12:50:13;96691.56;;;26.08;53.81
2841;BME280;53423;49.224;12.074;2022-09-14T12:52:54;96676.88;;;26.01;52.98
2841;BME280;53423;49.224;12.074;2022-09-14T12:55:51;96676.41;;;25.70;52.77
2841;BME280;53423;49.224;12.074;2022-09-14T12:58:35;96677.81;;;25.62;54.40
2841;BME280;53423;49.224;12.074;2022-09-14T13:01:22;96688.59;;;25.57;53.36
2841;BME280;53423;49.224;12.074;2022-09-14T13:03:54;96685.50;;;25.45;54.70
2841;BME280;53423;49.224;12.074;2022-09-14T13:06:25;96685.97;;;25.19;55.73
2841;BME280;53423;49.224;12.074;2022-09-14T13:08:56;96684.53;;;25.31;54.92
2841;BME280;53423;49.224;12.074;2022-09-14T13:11:29;96692.09;;;25.24;54.98
2841;BME280;53423;49.224;12.074;2022-09-14T13:13:59;96686.13;;;24.99;55.83
2841;BME280;53423;49.224;12.074;2022-09-14T13:16:36;96689.22;;;24.82;56.23
2841;BME280;53423;49.224;12.074;2022-09-14T13:19:18;96695.56;;;24.47;56.13
2841;BME280;53423;49.224;12.074;2022-09-14T13:21:48;96695.09;;;24.84;55.28
2841;BME280;53423;49.224;12.074;2022-09-14T13:24:35;96695.38;;;24.83;55.95
2841;BME280;53423;49.224;12.074;2022-09-14T13:27:05;96686.53;;;24.82;57.03
2841;BME280;53423;49.224;12.074;2022-09-14T13:29:42;96701.25;;;24.90;55.75
2841;BME280;53423;49.224;12.074;2022-09-14T13:32:20;96703.34;;;24.93;56.37
2841;BME280;53423;49.224;12.074;2022-09-14T13:34:48;96698.47;;;25.00;56.42
2841;BME280;53423;49.224;12.074;2022-09-14T13:37:16;96691.41;;;25.09;56.87
2841;BME280;53423;49.224;12.074;2022-09-14T13:39:48;96688.53;;;25.00;56.57
2841;BME280;53423;49.224;12.074;2022-09-14T13:42:17;96676.13;;;25.09;56.09